VICTORIA GONZALES, B current weather conditions

sailwx.info

Wind from 240 at 8 knots gusting 15

Air temperature 16.7° C
Dewpoint 9.5° C

Last reported at 2019-Jun-27 00:00 UTC.
Time now 2019-Jun-27 02:56 UTC

Location: N 48°25' W 123°19'.
View on Google Maps.

See reports from other nearby stations

  
Tides and Currents Weather Stations Pressure Air Temp Water Temp Dewpoint Dewpoint Depression Visibility Wind Speed Wind Dir Waves Ship Positions
date/time (UTC)wind fromknots sea level pressurealtimeterstation pressurevisibilityair tempwater tempwave heightnotes
2019-Jun-27 01:00 230 7 15.0
2019-Jun-27 00:00 240 8 gusting 15 16.7
2019-Jun-26 12:00 230 6 11.3
2019-Jun-26 11:00 240 7 10.5
2019-Jun-26 10:00 250 6 12.0
2019-Jun-26 09:00 240 12 12.2
2019-Jun-26 08:00 240 6 13.1
2019-Jun-26 05:00 260 13 gusting 19 15.0
2019-Jun-26 04:00 240 14 gusting 20 12.9
2019-Jun-26 03:00 240 11 gusting 17 14.5
2019-Jun-26 02:00 230 8 14.7
2019-Jun-26 01:00 240 9 17.3
2019-Jun-26 00:00 240 12 gusting 19 17.9
2019-Jun-25 23:00 240 6 19.0
2019-Jun-25 22:00 210 4 16.2
2019-Jun-25 20:00 120 4 19.1
2019-Jun-25 19:00 060 4 19.3
2019-Jun-25 18:00 100 4 17.1
2019-Jun-25 17:00 050 4 17.2
2019-Jun-25 16:00 130 1 14.0
2019-Jun-25 08:00 240 7 10.9
2019-Jun-25 07:00 240 7 11.6
2019-Jun-25 06:00 230 8 12.5